sensor_id;sensor_type;location;lat;lon;timestamp;P1;durP1;ratioP1;P2;durP2;ratioP2
51602;SDS011;37954;51.980;5.850;2023-06-19T00:03:48;6.32;;;4.70;;
51602;SDS011;37954;51.980;5.850;2023-06-19T00:08:00;5.53;;;4.85;;
51602;SDS011;37954;51.980;5.850;2023-06-19T00:12:14;7.30;;;4.60;;
51602;SDS011;37954;51.980;5.850;2023-06-19T00:16:26;5.90;;;4.53;;
51602;SDS011;37954;51.980;5.850;2023-06-19T00:20:38;4.88;;;4.47;;
51602;SDS011;37954;51.980;5.850;2023-06-19T00:24:50;5.28;;;4.57;;
51602;SDS011;37954;51.980;5.850;2023-06-19T00:29:03;5.07;;;4.57;;
51602;SDS011;37954;51.980;5.850;2023-06-19T00:33:15;5.18;;;4.68;;
51602;SDS011;37954;51.980;5.850;2023-06-19T00:37:26;5.90;;;4.47;;
51602;SDS011;37954;51.980;5.850;2023-06-19T00:41:43;4.60;;;4.18;;
51602;SDS011;37954;51.980;5.850;2023-06-19T00:45:59;4.90;;;4.43;;
51602;SDS011;37954;51.980;5.850;2023-06-19T00:50:11;4.85;;;4.22;;
51602;SDS011;37954;51.980;5.850;2023-06-19T00:54:24;4.43;;;3.60;;
51602;SDS011;37954;51.980;5.850;2023-06-19T00:58:36;4.50;;;3.70;;
51602;SDS011;37954;51.980;5.850;2023-06-19T01:02:47;8.07;;;4.07;;
51602;SDS011;37954;51.980;5.850;2023-06-19T01:07:02;4.70;;;4.30;;
51602;SDS011;37954;51.980;5.850;2023-06-19T01:11:21;4.35;;;3.63;;
51602;SDS011;37954;51.980;5.850;2023-06-19T01:15:38;5.63;;;3.95;;
51602;SDS011;37954;51.980;5.850;2023-06-19T01:19:53;5.97;;;3.80;;
51602;SDS011;37954;51.980;5.850;2023-06-19T01:24:07;4.63;;;3.75;;
51602;SDS011;37954;51.980;5.850;2023-06-19T01:28:19;6.30;;;3.83;;
51602;SDS011;37954;51.980;5.850;2023-06-19T01:37:26;7.82;;;3.28;;
51602;SDS011;37954;51.980;5.850;2023-06-19T01:41:45;4.97;;;3.63;;
51602;SDS011;37954;51.980;5.850;2023-06-19T01:45:58;3.83;;;3.53;;
51602;SDS011;37954;51.980;5.850;2023-06-19T01:50:12;4.47;;;3.63;;
51602;SDS011;37954;51.980;5.850;2023-06-19T01:54:23;4.45;;;3.53;;
51602;SDS011;37954;51.980;5.850;2023-06-19T01:58:35;3.53;;;3.22;;
51602;SDS011;37954;51.980;5.850;2023-06-19T02:02:47;4.68;;;3.55;;
51602;SDS011;37954;51.980;5.850;2023-06-19T02:06:59;3.45;;;3.13;;
51602;SDS011;37954;51.980;5.850;2023-06-19T02:11:11;5.90;;;3.22;;
51602;SDS011;37954;51.980;5.850;2023-06-19T02:15:24;5.18;;;3.45;;
51602;SDS011;37954;51.980;5.850;2023-06-19T02:19:36;6.18;;;3.38;;
51602;SDS011;37954;51.980;5.850;2023-06-19T02:23:47;3.90;;;3.20;;
51602;SDS011;37954;51.980;5.850;2023-06-19T02:27:59;5.03;;;3.60;;
51602;SDS011;37954;51.980;5.850;2023-06-19T02:32:12;6.32;;;3.70;;
51602;SDS011;37954;51.980;5.850;2023-06-19T02:36:23;3.88;;;3.40;;
51602;SDS011;37954;51.980;5.850;2023-06-19T02:40:35;8.98;;;3.90;;
51602;SDS011;37954;51.980;5.850;2023-06-19T02:44:47;4.15;;;3.75;;
51602;SDS011;37954;51.980;5.850;2023-06-19T02:48:59;9.38;;;3.00;;
51602;SDS011;37954;51.980;5.850;2023-06-19T02:53:12;4.00;;;3.38;;
51602;SDS011;37954;51.980;5.850;2023-06-19T02:57:23;6.88;;;3.30;;
51602;SDS011;37954;51.980;5.850;2023-06-19T03:01:35;4.22;;;3.45;;
51602;SDS011;37954;51.980;5.850;2023-06-19T03:05:48;4.40;;;3.15;;
51602;SDS011;37954;51.980;5.850;2023-06-19T03:10:00;3.28;;;2.92;;
51602;SDS011;37954;51.980;5.850;2023-06-19T03:14:13;2.28;;;2.05;;
51602;SDS011;37954;51.980;5.850;2023-06-19T03:18:25;2.40;;;1.90;;
51602;SDS011;37954;51.980;5.850;2023-06-19T03:22:40;2.13;;;1.92;;
51602;SDS011;37954;51.980;5.850;2023-06-19T03:26:55;2.22;;;2.03;;
51602;SDS011;37954;51.980;5.850;2023-06-19T03:31:07;2.75;;;2.28;;
51602;SDS011;37954;51.980;5.850;2023-06-19T03:35:20;2.55;;;2.10;;
51602;SDS011;37954;51.980;5.850;2023-06-19T03:39:31;3.40;;;2.10;;
51602;SDS011;37954;51.980;5.850;2023-06-19T03:43:49;2.83;;;2.25;;
51602;SDS011;37954;51.980;5.850;2023-06-19T03:48:02;2.15;;;1.95;;
51602;SDS011;37954;51.980;5.850;2023-06-19T03:52:13;2.28;;;2.03;;
51602;SDS011;37954;51.980;5.850;2023-06-19T03:56:25;2.10;;;1.90;;
51602;SDS011;37954;51.980;5.850;2023-06-19T04:00:37;3.20;;;1.95;;
51602;SDS011;37954;51.980;5.850;2023-06-19T04:04:49;2.30;;;2.10;;
51602;SDS011;37954;51.980;5.850;2023-06-19T04:09:00;2.67;;;2.42;;
51602;SDS011;37954;51.980;5.850;2023-06-19T04:13:12;3.35;;;2.58;;
51602;SDS011;37954;51.980;5.850;2023-06-19T04:17:25;2.40;;;2.13;;
51602;SDS011;37954;51.980;5.850;2023-06-19T04:21:37;7.05;;;2.58;;
51602;SDS011;37954;51.980;5.850;2023-06-19T04:25:49;3.63;;;2.67;;
51602;SDS011;37954;51.980;5.850;2023-06-19T04:30:05;2.38;;;2.08;;
51602;SDS011;37954;51.980;5.850;2023-06-19T04:34:19;5.88;;;2.58;;
51602;SDS011;37954;51.980;5.850;2023-06-19T04:38:33;6.63;;;2.50;;
51602;SDS011;37954;51.980;5.850;2023-06-19T04:42:45;5.18;;;2.80;;
51602;SDS011;37954;51.980;5.850;2023-06-19T04:46:56;5.05;;;2.30;;
51602;SDS011;37954;51.980;5.850;2023-06-19T04:51:12;3.22;;;2.63;;
51602;SDS011;37954;51.980;5.850;2023-06-19T04:55:24;4.50;;;2.53;;
51602;SDS011;37954;51.980;5.850;2023-06-19T04:59:36;2.85;;;2.65;;
51602;SDS011;37954;51.980;5.850;2023-06-19T05:03:48;7.55;;;3.10;;
51602;SDS011;37954;51.980;5.850;2023-06-19T05:08:01;3.13;;;2.83;;
51602;SDS011;37954;51.980;5.850;2023-06-19T05:12:12;3.33;;;2.78;;
51602;SDS011;37954;51.980;5.850;2023-06-19T05:16:24;3.50;;;2.70;;
51602;SDS011;37954;51.980;5.850;2023-06-19T05:20:36;3.75;;;3.33;;
51602;SDS011;37954;51.980;5.850;2023-06-19T05:24:48;4.18;;;2.90;;
51602;SDS011;37954;51.980;5.850;2023-06-19T05:28:59;4.78;;;3.50;;
51602;SDS011;37954;51.980;5.850;2023-06-19T05:33:11;3.72;;;3.30;;
51602;SDS011;37954;51.980;5.850;2023-06-19T05:37:27;4.93;;;3.05;;
51602;SDS011;37954;51.980;5.850;2023-06-19T05:41:38;5.00;;;3.05;;
51602;SDS011;37954;51.980;5.850;2023-06-19T05:45:50;3.88;;;3.13;;
51602;SDS011;37954;51.980;5.850;2023-06-19T05:50:03;4.72;;;3.13;;
51602;SDS011;37954;51.980;5.850;2023-06-19T05:54:15;5.45;;;4.10;;
51602;SDS011;37954;51.980;5.850;2023-06-19T05:58:29;4.93;;;4.20;;
51602;SDS011;37954;51.980;5.850;2023-06-19T06:02:40;8.75;;;4.18;;
51602;SDS011;37954;51.980;5.850;2023-06-19T06:06:52;5.15;;;3.72;;
51602;SDS011;37954;51.980;5.850;2023-06-19T06:11:04;4.53;;;3.83;;
51602;SDS011;37954;51.980;5.850;2023-06-19T06:15:15;4.88;;;4.05;;
51602;SDS011;37954;51.980;5.850;2023-06-19T06:19:27;6.22;;;4.82;;
51602;SDS011;37954;51.980;5.850;2023-06-19T06:23:41;5.15;;;4.07;;
51602;SDS011;37954;51.980;5.850;2023-06-19T06:27:55;4.32;;;3.92;;
51602;SDS011;37954;51.980;5.850;2023-06-19T06:32:07;5.88;;;4.07;;
51602;SDS011;37954;51.980;5.850;2023-06-19T06:36:20;4.43;;;3.75;;
51602;SDS011;37954;51.980;5.850;2023-06-19T06:40:46;7.75;;;3.85;;
51602;SDS011;37954;51.980;5.850;2023-06-19T06:44:58;4.30;;;3.70;;
51602;SDS011;37954;51.980;5.850;2023-06-19T06:49:10;3.78;;;3.47;;
51602;SDS011;37954;51.980;5.850;2023-06-19T06:53:23;4.30;;;3.42;;
51602;SDS011;37954;51.980;5.850;2023-06-19T06:57:34;4.82;;;3.35;;
51602;SDS011;37954;51.980;5.850;2023-06-19T07:01:46;4.65;;;3.30;;
51602;SDS011;37954;51.980;5.850;2023-06-19T07:05:58;3.53;;;3.22;;
51602;SDS011;37954;51.980;5.850;2023-06-19T07:10:14;3.92;;;3.55;;
51602;SDS011;37954;51.980;5.850;2023-06-19T07:14:26;3.75;;;3.10;;
51602;SDS011;37954;51.980;5.850;2023-06-19T07:18:38;5.70;;;3.60;;
51602;SDS011;37954;51.980;5.850;2023-06-19T07:22:50;3.53;;;3.22;;
51602;SDS011;37954;51.980;5.850;2023-06-19T07:27:04;3.50;;;3.20;;
51602;SDS011;37954;51.980;5.850;2023-06-19T07:31:16;4.32;;;3.10;;
51602;SDS011;37954;51.980;5.850;2023-06-19T07:35:27;3.80;;;3.13;;
51602;SDS011;37954;51.980;5.850;2023-06-19T07:39:39;3.97;;;3.50;;
51602;SDS011;37954;51.980;5.850;2023-06-19T07:43:50;5.03;;;4.20;;
51602;SDS011;37954;51.980;5.850;2023-06-19T07:48:02;6.32;;;4.53;;
51602;SDS011;37954;51.980;5.850;2023-06-19T07:52:14;4.95;;;4.50;;
51602;SDS011;37954;51.980;5.850;2023-06-19T07:56:26;7.22;;;5.65;;
51602;SDS011;37954;51.980;5.850;2023-06-19T08:00:37;8.35;;;5.55;;
51602;SDS011;37954;51.980;5.850;2023-06-19T08:04:49;6.30;;;4.95;;
51602;SDS011;37954;51.980;5.850;2023-06-19T08:09:00;6.32;;;5.38;;
51602;SDS011;37954;51.980;5.850;2023-06-19T08:13:29;7.30;;;5.65;;
51602;SDS011;37954;51.980;5.850;2023-06-19T08:17:41;5.53;;;4.95;;
51602;SDS011;37954;51.980;5.850;2023-06-19T08:21:53;6.00;;;5.40;;
51602;SDS011;37954;51.980;5.850;2023-06-19T08:26:05;6.10;;;5.50;;
51602;SDS011;37954;51.980;5.850;2023-06-19T08:30:19;6.50;;;5.25;;
51602;SDS011;37954;51.980;5.850;2023-06-19T08:34:30;10.30;;;5.38;;
51602;SDS011;37954;51.980;5.850;2023-06-19T08:38:42;11.15;;;6.20;;
51602;SDS011;37954;51.980;5.850;2023-06-19T08:42:54;8.82;;;5.72;;
51602;SDS011;37954;51.980;5.850;2023-06-19T08:47:07;9.48;;;6.78;;
51602;SDS011;37954;51.980;5.850;2023-06-19T08:51:19;8.70;;;6.07;;
51602;SDS011;37954;51.980;5.850;2023-06-19T08:55:30;8.18;;;6.35;;
51602;SDS011;37954;51.980;5.850;2023-06-19T08:59:49;7.35;;;6.45;;
51602;SDS011;37954;51.980;5.850;2023-06-19T09:04:07;7.20;;;6.35;;
51602;SDS011;37954;51.980;5.850;2023-06-19T09:08:23;8.40;;;5.80;;
51602;SDS011;37954;51.980;5.850;2023-06-19T09:12:38;6.90;;;5.88;;
51602;SDS011;37954;51.980;5.850;2023-06-19T09:16:50;7.30;;;6.50;;
51602;SDS011;37954;51.980;5.850;2023-06-19T09:21:02;9.88;;;6.65;;
51602;SDS011;37954;51.980;5.850;2023-06-19T09:25:14;9.10;;;6.63;;
51602;SDS011;37954;51.980;5.850;2023-06-19T09:29:26;8.30;;;6.30;;
51602;SDS011;37954;51.980;5.850;2023-06-19T09:33:38;7.38;;;6.28;;
51602;SDS011;37954;51.980;5.850;2023-06-19T09:37:51;6.85;;;6.00;;
51602;SDS011;37954;51.980;5.850;2023-06-19T09:42:05;6.95;;;6.25;;
51602;SDS011;37954;51.980;5.850;2023-06-19T09:46:19;8.10;;;7.22;;
51602;SDS011;37954;51.980;5.850;2023-06-19T09:50:32;11.07;;;6.97;;
51602;SDS011;37954;51.980;5.850;2023-06-19T09:54:46;7.35;;;6.63;;
51602;SDS011;37954;51.980;5.850;2023-06-19T09:58:59;7.97;;;6.93;;
51602;SDS011;37954;51.980;5.850;2023-06-19T10:03:12;7.60;;;6.75;;
51602;SDS011;37954;51.980;5.850;2023-06-19T10:07:26;8.65;;;6.18;;
51602;SDS011;37954;51.980;5.850;2023-06-19T10:11:50;6.90;;;5.97;;
51602;SDS011;37954;51.980;5.850;2023-06-19T10:16:03;7.63;;;6.57;;
51602;SDS011;37954;51.980;5.850;2023-06-19T10:20:23;8.48;;;7.30;;
51602;SDS011;37954;51.980;5.850;2023-06-19T10:24:48;8.73;;;7.38;;
51602;SDS011;37954;51.980;5.850;2023-06-19T10:29:01;7.65;;;6.03;;
51602;SDS011;37954;51.980;5.850;2023-06-19T10:33:25;7.18;;;6.15;;
51602;SDS011;37954;51.980;5.850;2023-06-19T10:37:38;13.90;;;7.72;;
51602;SDS011;37954;51.980;5.850;2023-06-19T10:41:53;8.25;;;7.45;;
51602;SDS011;37954;51.980;5.850;2023-06-19T10:46:05;8.43;;;7.57;;
51602;SDS011;37954;51.980;5.850;2023-06-19T10:50:16;7.60;;;6.88;;
51602;SDS011;37954;51.980;5.850;2023-06-19T10:54:28;6.85;;;6.22;;
51602;SDS011;37954;51.980;5.850;2023-06-19T10:58:40;8.07;;;7.25;;
51602;SDS011;37954;51.980;5.850;2023-06-19T11:02:52;7.65;;;6.68;;
51602;SDS011;37954;51.980;5.850;2023-06-19T11:07:04;8.82;;;7.25;;
51602;SDS011;37954;51.980;5.850;2023-06-19T11:11:16;8.50;;;6.85;;
51602;SDS011;37954;51.980;5.850;2023-06-19T11:15:32;10.55;;;7.38;;
51602;SDS011;37954;51.980;5.850;2023-06-19T11:19:45;8.75;;;7.15;;
51602;SDS011;37954;51.980;5.850;2023-06-19T11:23:57;8.63;;;7.47;;
51602;SDS011;37954;51.980;5.850;2023-06-19T11:28:13;8.25;;;6.95;;
51602;SDS011;37954;51.980;5.850;2023-06-19T11:32:36;10.32;;;7.32;;
51602;SDS011;37954;51.980;5.850;2023-06-19T11:36:52;8.43;;;7.43;;
51602;SDS011;37954;51.980;5.850;2023-06-19T11:41:04;8.45;;;6.18;;
51602;SDS011;37954;51.980;5.850;2023-06-19T11:45:19;12.63;;;7.38;;
51602;SDS011;37954;51.980;5.850;2023-06-19T11:49:35;8.77;;;7.28;;
51602;SDS011;37954;51.980;5.850;2023-06-19T11:53:47;7.90;;;6.95;;
51602;SDS011;37954;51.980;5.850;2023-06-19T11:58:00;11.55;;;6.85;;
51602;SDS011;37954;51.980;5.850;2023-06-19T12:02:12;6.93;;;5.05;;
51602;SDS011;37954;51.980;5.850;2023-06-19T12:06:24;10.52;;;5.20;;
51602;SDS011;37954;51.980;5.850;2023-06-19T12:10:36;5.07;;;4.60;;
51602;SDS011;37954;51.980;5.850;2023-06-19T12:14:48;6.53;;;5.88;;
51602;SDS011;37954;51.980;5.850;2023-06-19T12:19:00;9.32;;;6.00;;
51602;SDS011;37954;51.980;5.850;2023-06-19T12:23:12;6.45;;;5.82;;
51602;SDS011;37954;51.980;5.850;2023-06-19T12:27:23;7.03;;;5.78;;
51602;SDS011;37954;51.980;5.850;2023-06-19T12:31:35;8.02;;;5.70;;
51602;SDS011;37954;51.980;5.850;2023-06-19T12:35:47;6.70;;;6.00;;
51602;SDS011;37954;51.980;5.850;2023-06-19T12:39:59;6.50;;;5.20;;
51602;SDS011;37954;51.980;5.850;2023-06-19T12:44:11;6.03;;;5.30;;
51602;SDS011;37954;51.980;5.850;2023-06-19T12:48:23;4.80;;;4.22;;
51602;SDS011;37954;51.980;5.850;2023-06-19T12:52:35;7.20;;;5.28;;
51602;SDS011;37954;51.980;5.850;2023-06-19T12:56:47;5.82;;;4.80;;
51602;SDS011;37954;51.980;5.850;2023-06-19T13:01:00;6.43;;;4.40;;
51602;SDS011;37954;51.980;5.850;2023-06-19T13:05:12;4.88;;;4.47;;
51602;SDS011;37954;51.980;5.850;2023-06-19T13:09:26;5.82;;;5.03;;
51602;SDS011;37954;51.980;5.850;2023-06-19T13:13:38;8.18;;;6.05;;
51602;SDS011;37954;51.980;5.850;2023-06-19T13:17:49;7.15;;;5.28;;
51602;SDS011;37954;51.980;5.850;2023-06-19T13:22:01;4.53;;;4.13;;
51602;SDS011;37954;51.980;5.850;2023-06-19T13:26:13;7.07;;;4.90;;
51602;SDS011;37954;51.980;5.850;2023-06-19T13:30:25;9.25;;;5.68;;
51602;SDS011;37954;51.980;5.850;2023-06-19T13:34:37;6.90;;;4.88;;
51602;SDS011;37954;51.980;5.850;2023-06-19T13:38:50;8.63;;;5.82;;
51602;SDS011;37954;51.980;5.850;2023-06-19T13:43:03;6.40;;;4.85;;
51602;SDS011;37954;51.980;5.850;2023-06-19T13:47:14;5.93;;;4.80;;
51602;SDS011;37954;51.980;5.850;2023-06-19T13:51:26;4.90;;;4.03;;
51602;SDS011;37954;51.980;5.850;2023-06-19T13:55:38;6.78;;;5.00;;
51602;SDS011;37954;51.980;5.850;2023-06-19T13:59:50;4.78;;;4.38;;
51602;SDS011;37954;51.980;5.850;2023-06-19T14:04:02;5.72;;;5.00;;
51602;SDS011;37954;51.980;5.850;2023-06-19T14:08:14;5.75;;;4.20;;
51602;SDS011;37954;51.980;5.850;2023-06-19T14:12:25;7.63;;;4.97;;
51602;SDS011;37954;51.980;5.850;2023-06-19T14:16:37;7.78;;;5.32;;
51602;SDS011;37954;51.980;5.850;2023-06-19T14:20:49;9.32;;;5.25;;
51602;SDS011;37954;51.980;5.850;2023-06-19T14:25:01;9.98;;;5.65;;
51602;SDS011;37954;51.980;5.850;2023-06-19T14:29:13;12.13;;;6.15;;
51602;SDS011;37954;51.980;5.850;2023-06-19T14:33:27;9.40;;;6.30;;
51602;SDS011;37954;51.980;5.850;2023-06-19T14:37:38;7.82;;;5.55;;
51602;SDS011;37954;51.980;5.850;2023-06-19T14:41:50;6.82;;;5.90;;
51602;SDS011;37954;51.980;5.850;2023-06-19T14:46:07;5.90;;;5.30;;
51602;SDS011;37954;51.980;5.850;2023-06-19T14:50:19;6.05;;;5.38;;
51602;SDS011;37954;51.980;5.850;2023-06-19T14:54:31;6.13;;;5.05;;
51602;SDS011;37954;51.980;5.850;2023-06-19T14:58:42;5.78;;;5.13;;
51602;SDS011;37954;51.980;5.850;2023-06-19T15:02:54;5.15;;;4.65;;
51602;SDS011;37954;51.980;5.850;2023-06-19T15:07:06;15.18;;;5.95;;
51602;SDS011;37954;51.980;5.850;2023-06-19T15:11:18;6.85;;;4.78;;
51602;SDS011;37954;51.980;5.850;2023-06-19T15:15:29;7.57;;;5.65;;
51602;SDS011;37954;51.980;5.850;2023-06-19T15:19:41;5.75;;;4.82;;
51602;SDS011;37954;51.980;5.850;2023-06-19T15:23:54;7.13;;;6.03;;
51602;SDS011;37954;51.980;5.850;2023-06-19T15:28:07;6.10;;;5.50;;
51602;SDS011;37954;51.980;5.850;2023-06-19T15:32:19;4.93;;;4.40;;
51602;SDS011;37954;51.980;5.850;2023-06-19T15:36:30;5.13;;;4.63;;
51602;SDS011;37954;51.980;5.850;2023-06-19T15:40:42;9.95;;;4.93;;
51602;SDS011;37954;51.980;5.850;2023-06-19T15:44:54;7.45;;;4.72;;
51602;SDS011;37954;51.980;5.850;2023-06-19T15:49:06;5.53;;;4.93;;
51602;SDS011;37954;51.980;5.850;2023-06-19T15:53:21;5.80;;;5.20;;
51602;SDS011;37954;51.980;5.850;2023-06-19T15:57:33;6.38;;;4.82;;
51602;SDS011;37954;51.980;5.850;2023-06-19T16:01:45;6.07;;;5.13;;
51602;SDS011;37954;51.980;5.850;2023-06-19T16:05:58;5.53;;;5.00;;
51602;SDS011;37954;51.980;5.850;2023-06-19T16:10:18;6.40;;;4.97;;
51602;SDS011;37954;51.980;5.850;2023-06-19T16:14:30;5.90;;;5.30;;
51602;SDS011;37954;51.980;5.850;2023-06-19T16:18:42;9.25;;;5.75;;
51602;SDS011;37954;51.980;5.850;2023-06-19T16:22:54;7.70;;;5.25;;
51602;SDS011;37954;51.980;5.850;2023-06-19T16:27:06;5.65;;;5.05;;
51602;SDS011;37954;51.980;5.850;2023-06-19T16:31:17;12.52;;;4.82;;
51602;SDS011;37954;51.980;5.850;2023-06-19T16:35:29;6.95;;;5.30;;
51602;SDS011;37954;51.980;5.850;2023-06-19T16:39:41;6.47;;;5.30;;
51602;SDS011;37954;51.980;5.850;2023-06-19T16:43:53;7.05;;;5.45;;
51602;SDS011;37954;51.980;5.850;2023-06-19T16:48:05;5.63;;;5.13;;
51602;SDS011;37954;51.980;5.850;2023-06-19T16:52:16;9.88;;;5.43;;
51602;SDS011;37954;51.980;5.850;2023-06-19T16:56:28;5.80;;;5.20;;
51602;SDS011;37954;51.980;5.850;2023-06-19T17:00:40;8.32;;;5.50;;
51602;SDS011;37954;51.980;5.850;2023-06-19T17:04:52;9.07;;;4.70;;
51602;SDS011;37954;51.980;5.850;2023-06-19T17:09:03;7.95;;;5.28;;
51602;SDS011;37954;51.980;5.850;2023-06-19T17:13:15;6.38;;;5.13;;
51602;SDS011;37954;51.980;5.850;2023-06-19T17:17:27;7.22;;;4.57;;
51602;SDS011;37954;51.980;5.850;2023-06-19T17:21:39;8.95;;;5.25;;
51602;SDS011;37954;51.980;5.850;2023-06-19T17:25:51;6.07;;;5.18;;
51602;SDS011;37954;51.980;5.850;2023-06-19T17:30:03;5.70;;;5.00;;
51602;SDS011;37954;51.980;5.850;2023-06-19T17:34:15;5.68;;;4.93;;
51602;SDS011;37954;51.980;5.850;2023-06-19T17:38:27;6.18;;;5.28;;
51602;SDS011;37954;51.980;5.850;2023-06-19T17:42:39;14.23;;;5.68;;
51602;SDS011;37954;51.980;5.850;2023-06-19T17:46:52;5.50;;;4.88;;
51602;SDS011;37954;51.980;5.850;2023-06-19T17:51:04;6.63;;;5.20;;
51602;SDS011;37954;51.980;5.850;2023-06-19T17:55:16;6.25;;;5.55;;
51602;SDS011;37954;51.980;5.850;2023-06-19T17:59:27;7.18;;;4.88;;
51602;SDS011;37954;51.980;5.850;2023-06-19T18:03:40;5.20;;;4.53;;
51602;SDS011;37954;51.980;5.850;2023-06-19T18:07:52;6.50;;;5.03;;
51602;SDS011;37954;51.980;5.850;2023-06-19T18:12:04;6.20;;;4.35;;
51602;SDS011;37954;51.980;5.850;2023-06-19T18:16:16;6.55;;;4.60;;
51602;SDS011;37954;51.980;5.850;2023-06-19T18:20:27;9.10;;;4.72;;
51602;SDS011;37954;51.980;5.850;2023-06-19T18:24:39;8.13;;;4.85;;
51602;SDS011;37954;51.980;5.850;2023-06-19T18:28:52;6.18;;;4.35;;
51602;SDS011;37954;51.980;5.850;2023-06-19T18:33:04;6.70;;;4.80;;
51602;SDS011;37954;51.980;5.850;2023-06-19T18:37:16;5.07;;;4.15;;
51602;SDS011;37954;51.980;5.850;2023-06-19T18:41:28;5.43;;;4.88;;
51602;SDS011;37954;51.980;5.850;2023-06-19T18:45:39;4.32;;;3.92;;
51602;SDS011;37954;51.980;5.850;2023-06-19T18:49:51;7.97;;;4.97;;
51602;SDS011;37954;51.980;5.850;2023-06-19T18:54:03;6.07;;;4.43;;
51602;SDS011;37954;51.980;5.850;2023-06-19T18:58:15;5.35;;;4.47;;
51602;SDS011;37954;51.980;5.850;2023-06-19T19:02:30;5.43;;;4.60;;
51602;SDS011;37954;51.980;5.850;2023-06-19T19:06:42;7.63;;;5.00;;
51602;SDS011;37954;51.980;5.850;2023-06-19T19:10:54;4.53;;;4.05;;
51602;SDS011;37954;51.980;5.850;2023-06-19T19:15:07;5.32;;;4.60;;
51602;SDS011;37954;51.980;5.850;2023-06-19T19:19:19;4.75;;;4.28;;
51602;SDS011;37954;51.980;5.850;2023-06-19T19:23:31;5.68;;;4.22;;
51602;SDS011;37954;51.980;5.850;2023-06-19T19:27:42;5.65;;;4.20;;
51602;SDS011;37954;51.980;5.850;2023-06-19T19:31:54;4.78;;;4.15;;
51602;SDS011;37954;51.980;5.850;2023-06-19T19:36:06;5.30;;;4.07;;
51602;SDS011;37954;51.980;5.850;2023-06-19T19:40:18;5.55;;;3.90;;
51602;SDS011;37954;51.980;5.850;2023-06-19T19:44:30;5.82;;;4.55;;
51602;SDS011;37954;51.980;5.850;2023-06-19T19:48:42;4.63;;;3.80;;
51602;SDS011;37954;51.980;5.850;2023-06-19T19:52:57;5.53;;;4.13;;
51602;SDS011;37954;51.980;5.850;2023-06-19T19:57:14;4.85;;;4.07;;
51602;SDS011;37954;51.980;5.850;2023-06-19T20:01:26;5.07;;;4.18;;
51602;SDS011;37954;51.980;5.850;2023-06-19T20:05:39;5.15;;;4.10;;
51602;SDS011;37954;51.980;5.850;2023-06-19T20:09:51;5.53;;;4.40;;
51602;SDS011;37954;51.980;5.850;2023-06-19T20:14:07;6.15;;;4.10;;
51602;SDS011;37954;51.980;5.850;2023-06-19T20:18:28;5.07;;;4.25;;
51602;SDS011;37954;51.980;5.850;2023-06-19T20:22:40;4.80;;;4.18;;
51602;SDS011;37954;51.980;5.850;2023-06-19T20:26:52;9.50;;;4.47;;
51602;SDS011;37954;51.980;5.850;2023-06-19T20:31:04;5.93;;;4.40;;
51602;SDS011;37954;51.980;5.850;2023-06-19T20:35:16;5.57;;;4.38;;
51602;SDS011;37954;51.980;5.850;2023-06-19T20:39:27;7.53;;;4.88;;
51602;SDS011;37954;51.980;5.850;2023-06-19T20:43:40;5.57;;;4.18;;
51602;SDS011;37954;51.980;5.850;2023-06-19T20:47:55;4.95;;;4.43;;
51602;SDS011;37954;51.980;5.850;2023-06-19T20:52:07;5.80;;;4.70;;
51602;SDS011;37954;51.980;5.850;2023-06-19T20:56:19;7.53;;;4.60;;
51602;SDS011;37954;51.980;5.850;2023-06-19T21:00:31;9.13;;;4.78;;
51602;SDS011;37954;51.980;5.850;2023-06-19T21:04:43;6.07;;;4.72;;
51602;SDS011;37954;51.980;5.850;2023-06-19T21:08:55;10.30;;;4.50;;
51602;SDS011;37954;51.980;5.850;2023-06-19T21:13:06;6.63;;;5.00;;
51602;SDS011;37954;51.980;5.850;2023-06-19T21:17:32;5.15;;;4.10;;
51602;SDS011;37954;51.980;5.850;2023-06-19T21:21:44;7.75;;;4.60;;
51602;SDS011;37954;51.980;5.850;2023-06-19T21:25:55;4.82;;;4.05;;
51602;SDS011;37954;51.980;5.850;2023-06-19T21:30:07;6.40;;;4.13;;
51602;SDS011;37954;51.980;5.850;2023-06-19T21:34:19;6.03;;;4.05;;
51602;SDS011;37954;51.980;5.850;2023-06-19T21:38:34;5.47;;;4.25;;
51602;SDS011;37954;51.980;5.850;2023-06-19T21:42:46;4.55;;;3.95;;
51602;SDS011;37954;51.980;5.850;2023-06-19T21:46:58;6.07;;;4.22;;
51602;SDS011;37954;51.980;5.850;2023-06-19T21:51:09;9.90;;;4.00;;
51602;SDS011;37954;51.980;5.850;2023-06-19T21:55:21;4.82;;;3.88;;
51602;SDS011;37954;51.980;5.850;2023-06-19T21:59:33;6.28;;;3.92;;
51602;SDS011;37954;51.980;5.850;2023-06-19T22:03:45;4.57;;;3.85;;
51602;SDS011;37954;51.980;5.850;2023-06-19T22:07:56;4.03;;;3.40;;
51602;SDS011;37954;51.980;5.850;2023-06-19T22:12:08;3.90;;;3.13;;
51602;SDS011;37954;51.980;5.850;2023-06-19T22:16:20;6.10;;;3.33;;
51602;SDS011;37954;51.980;5.850;2023-06-19T22:20:32;6.68;;;3.60;;
51602;SDS011;37954;51.980;5.850;2023-06-19T22:24:44;4.93;;;3.85;;
51602;SDS011;37954;51.980;5.850;2023-06-19T22:28:56;5.65;;;3.45;;
51602;SDS011;37954;51.980;5.850;2023-06-19T22:33:07;4.20;;;3.47;;
51602;SDS011;37954;51.980;5.850;2023-06-19T22:37:21;4.40;;;3.45;;
51602;SDS011;37954;51.980;5.850;2023-06-19T22:41:32;5.43;;;3.58;;
51602;SDS011;37954;51.980;5.850;2023-06-19T22:45:44;4.65;;;3.67;;
51602;SDS011;37954;51.980;5.850;2023-06-19T22:49:56;5.93;;;3.17;;
51602;SDS011;37954;51.980;5.850;2023-06-19T22:54:08;3.92;;;3.53;;
51602;SDS011;37954;51.980;5.850;2023-06-19T22:58:19;5.30;;;3.45;;
51602;SDS011;37954;51.980;5.850;2023-06-19T23:02:31;6.25;;;3.70;;
51602;SDS011;37954;51.980;5.850;2023-06-19T23:06:43;3.75;;;3.05;;
51602;SDS011;37954;51.980;5.850;2023-06-19T23:10:56;3.58;;;3.28;;
51602;SDS011;37954;51.980;5.850;2023-06-19T23:15:08;3.60;;;3.08;;
51602;SDS011;37954;51.980;5.850;2023-06-19T23:19:20;5.13;;;3.75;;
51602;SDS011;37954;51.980;5.850;2023-06-19T23:23:32;4.78;;;3.50;;
51602;SDS011;37954;51.980;5.850;2023-06-19T23:27:44;4.60;;;3.95;;
51602;SDS011;37954;51.980;5.850;2023-06-19T23:31:55;5.40;;;4.07;;
51602;SDS011;37954;51.980;5.850;2023-06-19T23:36:07;4.15;;;3.60;;
51602;SDS011;37954;51.980;5.850;2023-06-19T23:40:19;5.30;;;3.28;;
51602;SDS011;37954;51.980;5.850;2023-06-19T23:44:30;3.58;;;3.17;;
51602;SDS011;37954;51.980;5.850;2023-06-19T23:48:42;4.15;;;3.28;;
51602;SDS011;37954;51.980;5.850;2023-06-19T23:52:54;4.07;;;3.55;;
51602;SDS011;37954;51.980;5.850;2023-06-19T23:57:06;4.10;;;3.45;;
